Time;durP1;ratioP1;P1;durP2;ratioP2;P2;SDS_P1;SDS_P2;PMS_P1;PMS_P2;Temp;Humidity;BMP_temperature;BMP_pressure;BME280_temperature;BME280_humidity;BME280_pressure;Samples;Min_cycle;Max_cycle;Signal;HPM_P1;HPM_P2
2022/02/03 00:01:02;;;;;;;;;;;;;;;;;;5113155;28;19903;-57
2022/02/03 00:03:40;;;;;;;;;;;;;;;;;;5112864;28;19919;-56
2022/02/03 00:06:08;;;;;;;;;;;;;;;;;;5112932;28;19908;-56
2022/02/03 00:08:51;;;;;;;;;;;;;;;;;;5111836;28;20315;-55
2022/02/03 00:24:27;;;;;;;;;;;;;;;;;;5096507;28;19911;-56
2022/02/03 00:26:52;;;;;;;;;;;;;;;;;;5096497;28;19904;-55
2022/02/03 00:29:39;;;;;;;;;;;;;;;;;;5095692;28;20376;-55
2022/02/03 00:32:11;;;;;;;;;;;;;;;;;;5096304;28;20291;-55
2022/02/03 00:35:07;;;;;;;;;;;;;;;;;;5096387;28;19908;-56
2022/02/03 00:37:56;;;;;;;;;;;;;;;;;;5096199;28;19911;-56
2022/02/03 00:48:41;;;;;;;;;;;;;;;;;;5095473;28;19930;-56
2022/02/03 00:51:07;;;;;;;;;;;;;;;;;;5096237;28;19908;-56
2022/02/03 00:53:32;;;;;;;;;;;;;;;;;;5103722;28;20409;-55
2022/02/03 00:55:58;;;;;;;;;;;;;;;;;;5116100;28;19942;-56
2022/02/03 00:58:25;;;;;;;;;;;;;;;;;;5115615;28;20218;-56
2022/02/03 01:00:50;;;;;;;;;;;;;;;;;;5116016;28;19914;-55
2022/02/03 01:03:16;;;;;;;;;;;;;;;;;;5116266;28;19915;-53
2022/02/03 01:05:43;;;;;;;;;;;;;;;;;;5116563;28;19904;-55
2022/02/03 01:08:16;;;;;;;;;;;;;;;;;;5115382;28;19911;-54
2022/02/03 01:10:45;;;;;;;;;;;;;;;;;;5115866;28;19907;-56
2022/02/03 01:13:22;;;;;;;;;;;;;;;;;;5115841;28;19904;-53
2022/02/03 01:15:57;;;;;;;;;;;;;;;;;;5116000;28;19911;-55
2022/02/03 01:34:41;;;;;;;;;;;;;;;;;;5095150;28;19907;-55
2022/02/03 01:45:50;;;;;;;;;;;;;;;;;;5094950;28;19911;-56
2022/02/03 01:53:32;;;;;;;;;;;;;;;;;;5102674;28;19973;-56
2022/02/03 01:55:58;;;;;;;;;;;;;;;;;;5115465;28;19903;-56
2022/02/03 01:58:24;;;;;;;;;;;;;;;;;;5114934;28;19911;-57
2022/02/03 02:00:50;;;;;;;;;;;;;;;;;;5114839;28;19908;-55
2022/02/03 02:03:15;;;;;;;;;;;;;;;;;;5114825;28;19947;-56
2022/02/03 02:05:41;;;;;;;;;;;;;;;;;;5115167;28;19903;-55
2022/02/03 02:08:07;;;;;;;;;;;;;;;;;;5114437;28;19899;-55
2022/02/03 02:11:02;;;;;;;;;;;;;;;;;;5114913;28;19952;-57
2022/02/03 02:13:55;;;;;;;;;;;;;;;;;;5114719;28;19906;-56
2022/02/03 02:19:08;;;;;;;;;;;;;;;;;;5109043;28;20031;-56
2022/02/03 02:43:05;;;;;;;;;;;;;;;;;;5093579;28;20019;-55
2022/02/03 02:45:31;;;;;;;;;;;;;;;;;;5093890;28;19904;-56
2022/02/03 02:47:57;;;;;;;;;;;;;;;;;;5093539;28;19954;-56
2022/02/03 02:50:33;;;;;;;;;;;;;;;;;;5093759;28;19912;-55
2022/02/03 02:52:59;;;;;;;;;;;;;;;;;;5096496;28;19998;-55
2022/02/03 03:30:34;;;;;;;;;;;;;;;;;;5093197;28;20002;-55
2022/02/03 03:35:46;;;;;;;;;;;;;;;;;;5093093;28;19933;-56
2022/02/03 03:38:12;;;;;;;;;;;;;;;;;;5092479;28;19911;-57
2022/02/03 03:40:37;;;;;;;;;;;;;;;;;;5092961;28;19904;-55
2022/02/03 03:43:03;;;;;;;;;;;;;;;;;;5092735;28;19912;-56
2022/02/03 03:45:30;;;;;;;;;;;;;;;;;;5093084;28;19915;-56
2022/02/03 03:47:56;;;;;;;;;;;;;;;;;;5092444;28;20002;-56
2022/02/03 03:50:22;;;;;;;;;;;;;;;;;;5092770;28;19939;-54
2022/02/03 03:52:51;;;;;;;;;;;;;;;;;;5093728;28;19900;-56
2022/02/03 03:55:36;;;;;;;;;;;;;;;;;;5113014;28;19904;-55
2022/02/03 04:31:14;;;;;;;;;;;;;;;;;;5086995;28;19958;-57
2022/02/03 04:34:17;;;;;;;;;;;;;;;;;;5092276;28;19911;-57
2022/02/03 04:44:32;;;;;;;;;;;;;;;;;;5069038;28;20011;-57
2022/02/03 04:55:35;;;;;;;;;;;;;;;;;;5076517;28;19961;-55
2022/02/03 05:01:25;;;;;;;;;;;;;;;;;;5092122;28;19911;-57
2022/02/03 05:03:49;;;;;;;;;;;;;;;;;;5076942;28;19920;-56
2022/02/03 05:06:34;;;;;;;;;;;;;;;;;;5075566;28;19988;-56
2022/02/03 05:09:22;;;;;;;;;;;;;;;;;;5075014;28;20369;-56
2022/02/03 05:11:58;;;;;;;;;;;;;;;;;;5075574;28;20338;-57
2022/02/03 05:22:50;;;;;;;;;;;;;;;;;;5075281;28;19919;-56
2022/02/03 05:33:59;;;;;;;;;;;;;;;;;;5090616;28;20311;-57
2022/02/03 05:44:45;;;;;;;;;;;;;;;;;;5095386;28;20312;-56
2022/02/03 06:03:19;;;;;;;;;;;;;;;;;;5110344;28;20265;-56
2022/02/03 06:05:56;;;;;;;;;;;;;;;;;;5094725;28;19911;-57
2022/02/03 06:08:47;;;;;;;;;;;;;;;;;;5093902;28;19907;-55
2022/02/03 06:14:09;;;;;;;;;;;;;;;;;;5082110;28;19961;-57
2022/02/03 06:16:57;;;;;;;;;;;;;;;;;;5085051;28;19912;-57
2022/02/03 06:22:25;;;;;;;;;;;;;;;;;;5094107;28;19911;-56
2022/02/03 06:27:39;;;;;;;;;;;;;;;;;;5078886;28;19908;-57
2022/02/03 06:30:05;;;;;;;;;;;;;;;;;;5091283;28;20319;-56
2022/02/03 06:32:31;;;;;;;;;;;;;;;;;;5087731;28;19908;-57
2022/02/03 06:34:57;;;;;;;;;;;;;;;;;;5082978;28;19954;-57
2022/02/03 06:37:23;;;;;;;;;;;;;;;;;;5093348;28;20015;-56
2022/02/03 06:39:49;;;;;;;;;;;;;;;;;;5080467;28;19908;-56
2022/02/03 06:42:15;;;;;;;;;;;;;;;;;;5085604;28;19960;-56
2022/02/03 06:44:45;;;;;;;;;;;;;;;;;;5093050;28;20342;-56
2022/02/03 06:47:26;;;;;;;;;;;;;;;;;;5078055;28;19919;-56
2022/02/03 06:50:01;;;;;;;;;;;;;;;;;;5078020;28;19999;-56
2022/02/03 06:52:41;;;;;;;;;;;;;;;;;;5085843;28;20219;-55
2022/02/03 06:55:18;;;;;;;;;;;;;;;;;;5078595;28;19915;-55
2022/02/03 07:00:33;;;;;;;;;;;;;;;;;;5078051;28;20391;-55
2022/02/03 07:03:01;;;;;;;;;;;;;;;;;;5083180;28;19920;-57
2022/02/03 07:05:27;;;;;;;;;;;;;;;;;;5075020;28;20165;-55
2022/02/03 07:07:53;;;;;;;;;;;;;;;;;;5085487;28;19908;-57
2022/02/03 07:10:19;;;;;;;;;;;;;;;;;;5078590;28;19934;-57
2022/02/03 07:12:45;;;;;;;;;;;;;;;;;;5092455;28;19908;-55
2022/02/03 07:15:11;;;;;;;;;;;;;;;;;;5080946;28;20397;-56
2022/02/03 07:17:38;;;;;;;;;;;;;;;;;;5085664;28;19908;-57
2022/02/03 07:20:05;;;;;;;;;;;;;;;;;;5092222;28;20354;-56
2022/02/03 07:22:31;;;;;;;;;;;;;;;;;;5083315;28;19990;-57
2022/02/03 07:24:57;;;;;;;;;;;;;;;;;;5086519;28;19918;-55
2022/02/03 07:27:23;;;;;;;;;;;;;;;;;;5086603;28;19995;-56
2022/02/03 07:29:49;;;;;;;;;;;;;;;;;;5076055;28;20030;-56
2022/02/03 07:32:15;;;;;;;;;;;;;;;;;;5085818;28;19953;-55
2022/02/03 07:34:41;;;;;;;;;;;;;;;;;;5086533;28;19998;-57
2022/02/03 07:37:06;;;;;;;;;;;;;;;;;;5091244;28;19908;-57
2022/02/03 07:39:33;;;;;;;;;;;;;;;;;;5078470;28;19939;-56
2022/02/03 07:42:00;;;;;;;;;;;;;;;;;;5075240;28;19915;-56
2022/02/03 07:44:25;;;;;;;;;;;;;;;;;;5071501;28;19923;-52
2022/02/03 07:46:51;;;;;;;;;;;;;;;;;;5071677;28;20000;-55
2022/02/03 07:49:17;;;;;;;;;;;;;;;;;;5081516;28;19908;-54
2022/02/03 07:51:43;;;;;;;;;;;;;;;;;;5085877;28;19969;-55
2022/02/03 07:54:10;;;;;;;;;;;;;;;;;;5096464;28;19908;-52
2022/02/03 07:56:36;;;;;;;;;;;;;;;;;;5075595;28;20358;-56
2022/02/03 07:59:01;;;;;;;;;;;;;;;;;;5074522;28;19916;-55
2022/02/03 08:01:27;;;;;;;;;;;;;;;;;;5084103;28;20262;-57
2022/02/03 08:03:53;;;;;;;;;;;;;;;;;;5089930;28;19922;-57
2022/02/03 08:06:25;;;;;;;;;;;;;;;;;;5089308;28;19933;-55
2022/02/03 08:08:57;;;;;;;;;;;;;;;;;;5084529;28;19999;-56
2022/02/03 08:11:31;;;;;;;;;;;;;;;;;;5081800;28;20223;-56
2022/02/03 08:14:07;;;;;;;;;;;;;;;;;;5086333;28;19915;-56
2022/02/03 08:16:41;;;;;;;;;;;;;;;;;;5085928;28;19912;-55
2022/02/03 08:19:15;;;;;;;;;;;;;;;;;;5089203;28;19908;-56
2022/02/03 08:21:45;;;;;;;;;;;;;;;;;;5072625;28;19908;-55
2022/02/03 08:31:50;;;;;;;;;;;;;;;;;;5082413;28;20390;-57
2022/02/03 08:34:22;;;;;;;;;;;;;;;;;;5084116;28;20281;-56
2022/02/03 08:36:48;;;;;;;;;;;;;;;;;;5077714;28;19913;-56
2022/02/03 08:39:19;;;;;;;;;;;;;;;;;;5082809;28;20291;-57
2022/02/03 08:41:45;;;;;;;;;;;;;;;;;;5087976;28;19908;-54
2022/02/03 08:44:10;;;;;;;;;;;;;;;;;;5095120;28;19916;-55
2022/02/03 08:46:36;;;;;;;;;;;;;;;;;;5079936;28;19998;-54
2022/02/03 08:49:06;;;;;;;;;;;;;;;;;;5081326;28;20281;-56
2022/02/03 08:51:32;;;;;;;;;;;;;;;;;;5081805;28;19912;-56
2022/02/03 08:54:05;;;;;;;;;;;;;;;;;;5093697;28;19907;-55
2022/02/03 08:56:51;;;;;;;;;;;;;;;;;;5078981;28;19916;-55
2022/02/03 08:59:36;;;;;;;;;;;;;;;;;;5086558;28;19991;-55
2022/02/03 09:41:08;;;;;;;;;;;;;;;;;;5086317;28;19923;-56
2022/02/03 09:52:03;;;;;;;;;;;;;;;;;;5090475;28;19965;-55
2022/02/03 09:54:50;;;;;;;;;;;;;;;;;;5088308;28;19912;-56
2022/02/03 10:02:21;;;;;;;;;;;;;;;;;;5082004;28;19923;-55
2022/02/03 10:05:33;;;;;;;;;;;;;;;;;;5082426;28;19908;-56
2022/02/03 10:07:38;;;;;;;;;;;;;;;;;;5082214;28;19916;-55
2022/02/03 10:10:08;;;;;;;;;;;;;;;;;;5089744;28;19915;-56
2022/02/03 10:12:33;;;;;;;;;;;;;;;;;;5078894;28;19913;-55
2022/02/03 10:14:59;;;;;;;;;;;;;;;;;;5092257;28;19972;-55
2022/02/03 10:17:25;;;;;;;;;;;;;;;;;;5091918;28;19912;-56
2022/02/03 10:19:51;;;;;;;;;;;;;;;;;;5089037;28;19904;-55
2022/02/03 10:22:17;;;;;;;;;;;;;;;;;;5082916;28;19923;-55
2022/02/03 10:24:46;;;;;;;;;;;;;;;;;;5075417;28;19912;-54
2022/02/03 10:27:12;;;;;;;;;;;;;;;;;;5085110;28;19916;-55
2022/02/03 10:29:44;;;;;;;;;;;;;;;;;;5088763;28;19965;-54
2022/02/03 10:32:10;;;;;;;;;;;;;;;;;;5092434;28;19915;-56
2022/02/03 10:34:36;;;;;;;;;;;;;;;;;;5085874;28;19913;-52
2022/02/03 10:37:23;;;;;;;;;;;;;;;;;;5092817;28;20288;-56
2022/02/03 10:48:12;;;;;;;;;;;;;;;;;;5091444;28;19941;-52
2022/02/03 11:01:47;;;;;;;;;;;;;;;;;;5075697;28;19915;-54
2022/02/03 11:07:04;;;;;;;;;;;;;;;;;;5081942;28;19914;-53
2022/02/03 11:09:45;;;;;;;;;;;;;;;;;;5085952;28;19947;-55
2022/02/03 11:12:15;;;;;;;;;;;;;;;;;;5077850;28;20009;-56
2022/02/03 11:14:41;;;;;;;;;;;;;;;;;;5087834;28;20350;-54
2022/02/03 11:17:07;;;;;;;;;;;;;;;;;;5089261;28;19935;-56
2022/02/03 11:19:34;;;;;;;;;;;;;;;;;;5085873;28;20350;-56
2022/02/03 11:22:05;;;;;;;;;;;;;;;;;;5087253;28;19998;-54
2022/02/03 11:24:33;;;;;;;;;;;;;;;;;;5072360;28;19917;-56
2022/02/03 11:58:05;;;;;;;;;;;;;;;;;;5080800;28;19915;-57
2022/02/03 12:00:49;;;;;;;;;;;;;;;;;;5084581;28;19962;-56
2022/02/03 12:03:28;;;;;;;;;;;;;;;;;;5086097;28;19923;-57
2022/02/03 12:06:57;;;;;;;;;;;;;;;;;;5082428;28;19908;-55
2022/02/03 12:16:51;;;;;;;;;;;;;;;;;;5079454;28;19914;-52
2022/02/03 12:27:05;;;;;;;;;;;;;;;;;;5092953;28;19982;-55
2022/02/03 12:29:38;;;;;;;;;;;;;;;;;;5080137;28;20010;-57
2022/02/03 12:40:25;;;;;;;;;;;;;;;;;;5076061;28;20012;-55
2022/02/03 12:42:58;;;;;;;;;;;;;;;;;;5078490;28;19927;-55
2022/02/03 12:45:26;;;;;;;;;;;;;;;;;;5087175;28;20006;-53
2022/02/03 12:47:52;;;;;;;;;;;;;;;;;;5082962;28;19908;-55
2022/02/03 12:50:17;;;;;;;;;;;;;;;;;;5075298;28;20018;-54
2022/02/03 12:52:44;;;;;;;;;;;;;;;;;;5077391;28;19908;-54
2022/02/03 12:55:10;;;;;;;;;;;;;;;;;;5094779;28;20302;-57
2022/02/03 12:57:36;;;;;;;;;;;;;;;;;;5088658;28;19961;-56
2022/02/03 13:00:02;;;;;;;;;;;;;;;;;;5088173;28;19950;-57
2022/02/03 13:02:28;;;;;;;;;;;;;;;;;;5085609;28;20285;-55
2022/02/03 13:04:53;;;;;;;;;;;;;;;;;;5082174;28;19912;-56
2022/02/03 13:07:20;;;;;;;;;;;;;;;;;;5088475;28;20384;-57
2022/02/03 13:09:53;;;;;;;;;;;;;;;;;;5088688;28;19912;-57
2022/02/03 13:12:24;;;;;;;;;;;;;;;;;;5075306;28;19908;-54
2022/02/03 13:14:54;;;;;;;;;;;;;;;;;;5086769;28;19965;-55
2022/02/03 13:17:30;;;;;;;;;;;;;;;;;;5079769;28;19908;-56
2022/02/03 13:20:01;;;;;;;;;;;;;;;;;;5078667;28;19911;-56
2022/02/03 13:27:32;;;;;;;;;;;;;;;;;;5089413;28;19908;-55
2022/02/03 13:30:32;;;;;;;;;;;;;;;;;;5087694;28;19915;-56
2022/02/03 13:32:52;;;;;;;;;;;;;;;;;;5082861;28;19926;-55
2022/02/03 13:35:24;;;;;;;;;;;;;;;;;;5080795;28;20325;-55
2022/02/03 13:37:50;;;;;;;;;;;;;;;;;;5079191;28;20345;-55
2022/02/03 13:40:17;;;;;;;;;;;;;;;;;;5089610;28;19916;-55
2022/02/03 13:42:47;;;;;;;;;;;;;;;;;;5083055;28;20253;-56
2022/02/03 13:45:14;;;;;;;;;;;;;;;;;;5079428;28;19947;-55
2022/02/03 13:47:40;;;;;;;;;;;;;;;;;;5075223;28;20315;-57
2022/02/03 13:50:06;;;;;;;;;;;;;;;;;;5083046;28;19996;-57
2022/02/03 13:52:43;;;;;;;;;;;;;;;;;;5088030;28;20293;-56
2022/02/03 14:10:32;;;;;;;;;;;;;;;;;;5081426;28;19912;-56
2022/02/03 14:19:44;;;;;;;;;;;;;;;;;;5086837;28;19915;-57
2022/02/03 14:22:12;;;;;;;;;;;;;;;;;;5089191;28;20333;-56
2022/02/03 14:27:29;;;;;;;;;;;;;;;;;;5091673;28;20281;-55
2022/02/03 14:30:02;;;;;;;;;;;;;;;;;;5088004;28;19908;-56
2022/02/03 14:32:39;;;;;;;;;;;;;;;;;;5084723;28;19915;-54
2022/02/03 14:35:06;;;;;;;;;;;;;;;;;;5076630;28;19923;-56
2022/02/03 14:40:34;;;;;;;;;;;;;;;;;;5079666;28;19915;-56
2022/02/03 14:42:45;;;;;;;;;;;;;;;;;;5082357;28;20003;-57
2022/02/03 14:45:14;;;;;;;;;;;;;;;;;;5087984;28;19916;-56
2022/02/03 14:47:40;;;;;;;;;;;;;;;;;;5073515;28;20018;-54
2022/02/03 14:50:06;;;;;;;;;;;;;;;;;;5088722;28;19987;-57
2022/02/03 14:52:55;;;;;;;;;;;;;;;;;;5085478;28;20335;-56
2022/02/03 14:58:21;;;;;;;;;;;;;;;;;;5072535;28;20306;-57
2022/02/03 15:00:48;;;;;;;;;;;;;;;;;;5074915;28;19908;-57
2022/02/03 15:03:14;;;;;;;;;;;;;;;;;;5079647;28;19921;-57
2022/02/03 15:05:41;;;;;;;;;;;;;;;;;;5088125;28;20104;-57
2022/02/03 15:08:17;;;;;;;;;;;;;;;;;;5075742;28;20285;-57
2022/02/03 15:10:46;;;;;;;;;;;;;;;;;;5081399;28;19915;-56
2022/02/03 15:15:44;;;;;;;;;;;;;;;;;;5086353;28;19914;-57
2022/02/03 15:18:09;;;;;;;;;;;;;;;;;;5079270;28;20344;-55
2022/02/03 15:20:35;;;;;;;;;;;;;;;;;;5086232;28;19926;-57
2022/02/03 15:23:02;;;;;;;;;;;;;;;;;;5074024;28;20010;-54
2022/02/03 15:25:28;;;;;;;;;;;;;;;;;;5080219;28;19918;-56
2022/02/03 15:27:55;;;;;;;;;;;;;;;;;;5083262;28;19908;-57
2022/02/03 15:30:21;;;;;;;;;;;;;;;;;;5084331;28;19908;-55
2022/02/03 15:32:47;;;;;;;;;;;;;;;;;;5075079;28;19931;-55
2022/02/03 15:35:20;;;;;;;;;;;;;;;;;;5082894;28;19912;-55
2022/02/03 15:37:48;;;;;;;;;;;;;;;;;;5071833;28;19908;-57
2022/02/03 15:40:19;;;;;;;;;;;;;;;;;;5076538;28;19908;-56
2022/02/03 15:42:54;;;;;;;;;;;;;;;;;;5075956;28;19942;-55
2022/02/03 15:45:20;;;;;;;;;;;;;;;;;;5078216;28;19908;-57
2022/02/03 15:47:51;;;;;;;;;;;;;;;;;;5084548;28;19964;-57
2022/02/03 16:01:32;;;;;;;;;;;;;;;;;;5087211;28;20273;-55
2022/02/03 16:15:44;;;;;;;;;;;;;;;;;;5086867;28;19930;-56
2022/02/03 16:17:33;;;;;;;;;;;;;;;;;;5089880;28;19915;-55
2022/02/03 16:20:08;;;;;;;;;;;;;;;;;;5090151;28;19908;-57
2022/02/03 16:25:11;;;;;;;;;;;;;;;;;;5091607;28;20296;-56
2022/02/03 16:54:25;;;;;;;;;;;;;;;;;;5088760;28;19908;-57
2022/02/03 16:56:57;;;;;;;;;;;;;;;;;;5076382;28;20232;-55
2022/02/03 16:59:23;;;;;;;;;;;;;;;;;;5079033;28;20037;-57
2022/02/03 17:01:49;;;;;;;;;;;;;;;;;;5086060;28;19916;-57
2022/02/03 17:04:18;;;;;;;;;;;;;;;;;;5080674;28;19920;-55
2022/02/03 17:06:44;;;;;;;;;;;;;;;;;;5086658;28;19916;-55
2022/02/03 17:09:09;;;;;;;;;;;;;;;;;;5081207;28;19914;-55
2022/02/03 17:11:35;;;;;;;;;;;;;;;;;;5089019;28;19912;-56
2022/02/03 17:14:01;;;;;;;;;;;;;;;;;;5090359;28;20006;-56
2022/02/03 17:16:27;;;;;;;;;;;;;;;;;;5085930;28;20303;-56
2022/02/03 17:18:54;;;;;;;;;;;;;;;;;;5092965;28;19954;-55
2022/02/03 17:21:22;;;;;;;;;;;;;;;;;;5086190;28;19908;-55
2022/02/03 17:23:48;;;;;;;;;;;;;;;;;;5083033;28;20380;-56
2022/02/03 17:26:21;;;;;;;;;;;;;;;;;;5091687;28;20004;-55
2022/02/03 17:29:13;;;;;;;;;;;;;;;;;;5087760;28;20019;-55
2022/02/03 18:31:08;;;;;;;;;;;;;;;;;;5084984;28;20335;-53
2022/02/03 18:53:07;;;;;;;;;;;;;;;;;;5090225;28;19954;-56
2022/02/03 18:58:29;;;;;;;;;;;;;;;;;;5078484;28;20274;-57
2022/02/03 20:08:07;;;;;;;;;;;;;;;;;;5075191;28;20011;-57
2022/02/03 20:10:38;;;;;;;;;;;;;;;;;;5088814;28;19911;-56
2022/02/03 20:13:04;;;;;;;;;;;;;;;;;;5079835;28;19919;-56
2022/02/03 20:15:33;;;;;;;;;;;;;;;;;;5079845;28;20208;-53
2022/02/03 20:17:59;;;;;;;;;;;;;;;;;;5074850;28;20011;-52
2022/02/03 20:20:24;;;;;;;;;;;;;;;;;;5084065;28;20460;-57
2022/02/03 20:22:51;;;;;;;;;;;;;;;;;;5079799;28;19974;-56
2022/02/03 20:25:17;;;;;;;;;;;;;;;;;;5071963;28;20319;-53
2022/02/03 20:27:43;;;;;;;;;;;;;;;;;;5069437;28;19916;-52
2022/02/03 20:30:09;;;;;;;;;;;;;;;;;;5076319;28;20424;-56
2022/02/03 20:32:35;;;;;;;;;;;;;;;;;;5070217;28;20021;-55
2022/02/03 20:35:01;;;;;;;;;;;;;;;;;;5072801;28;19922;-54
2022/02/03 20:37:27;;;;;;;;;;;;;;;;;;5073818;28;19912;-54
2022/02/03 20:39:53;;;;;;;;;;;;;;;;;;5072522;28;19962;-52
2022/02/03 20:42:19;;;;;;;;;;;;;;;;;;5074988;28;20407;-56
2022/02/03 20:44:45;;;;;;;;;;;;;;;;;;5085274;28;19924;-56
2022/02/03 20:47:10;;;;;;;;;;;;;;;;;;5074171;28;19961;-52
2022/02/03 20:49:36;;;;;;;;;;;;;;;;;;5073907;28;19912;-56
2022/02/03 20:52:02;;;;;;;;;;;;;;;;;;5080190;28;20412;-55
2022/02/03 20:54:28;;;;;;;;;;;;;;;;;;5073298;28;19912;-57
2022/02/03 20:56:54;;;;;;;;;;;;;;;;;;5080248;28;19965;-57
2022/02/03 20:59:26;;;;;;;;;;;;;;;;;;5075851;28;20474;-55
2022/02/03 21:01:54;;;;;;;;;;;;;;;;;;5088811;28;19966;-56
2022/02/03 21:04:55;;;;;;;;;;;;;;;;;;5082537;28;19924;-55
2022/02/03 21:07:15;;;;;;;;;;;;;;;;;;5075374;28;19988;-55
2022/02/03 21:09:44;;;;;;;;;;;;;;;;;;5075771;28;20012;-55
2022/02/03 21:12:12;;;;;;;;;;;;;;;;;;5075499;28;19909;-56
2022/02/03 21:14:38;;;;;;;;;;;;;;;;;;5089100;28;19916;-57
2022/02/03 21:17:04;;;;;;;;;;;;;;;;;;5083972;28;20404;-56
2022/02/03 21:19:30;;;;;;;;;;;;;;;;;;5092050;28;19908;-55
2022/02/03 21:21:56;;;;;;;;;;;;;;;;;;5082870;28;19914;-57
2022/02/03 21:24:22;;;;;;;;;;;;;;;;;;5077676;28;19919;-54
2022/02/03 21:26:48;;;;;;;;;;;;;;;;;;5087529;28;20035;-56
2022/02/03 21:29:13;;;;;;;;;;;;;;;;;;5085974;28;19908;-54
2022/02/03 21:31:39;;;;;;;;;;;;;;;;;;5095052;28;19908;-53
2022/02/03 21:34:10;;;;;;;;;;;;;;;;;;5078616;28;20022;-52
2022/02/03 21:36:39;;;;;;;;;;;;;;;;;;5089918;28;19973;-54
2022/02/03 21:39:05;;;;;;;;;;;;;;;;;;5083475;28;19958;-56
2022/02/03 21:41:30;;;;;;;;;;;;;;;;;;5084317;28;19919;-57
2022/02/03 21:43:56;;;;;;;;;;;;;;;;;;5083364;28;19917;-55
2022/02/03 21:46:22;;;;;;;;;;;;;;;;;;5086123;28;20239;-54
2022/02/03 21:48:49;;;;;;;;;;;;;;;;;;5074422;28;19904;-54
2022/02/03 21:51:16;;;;;;;;;;;;;;;;;;5085991;28;19908;-54
2022/02/03 21:53:41;;;;;;;;;;;;;;;;;;5101969;28;19926;-53
2022/02/03 21:56:07;;;;;;;;;;;;;;;;;;5094683;28;20330;-53
2022/02/03 21:58:33;;;;;;;;;;;;;;;;;;5085693;28;19908;-54
2022/02/03 22:00:59;;;;;;;;;;;;;;;;;;5082293;28;19912;-54
2022/02/03 22:03:27;;;;;;;;;;;;;;;;;;5094280;28;20382;-53
2022/02/03 22:05:52;;;;;;;;;;;;;;;;;;5094876;28;19954;-55
2022/02/03 22:08:18;;;;;;;;;;;;;;;;;;5093797;28;19904;-57
2022/02/03 22:10:44;;;;;;;;;;;;;;;;;;5094545;28;20259;-53
2022/02/03 22:13:10;;;;;;;;;;;;;;;;;;5094487;28;19904;-55
2022/02/03 22:15:36;;;;;;;;;;;;;;;;;;5094288;28;19912;-56
2022/02/03 22:18:03;;;;;;;;;;;;;;;;;;5094202;28;19908;-55
2022/02/03 22:20:40;;;;;;;;;;;;;;;;;;5094657;28;19900;-53
2022/02/03 22:45:14;;;;;;;;;;;;;;;;;;5093990;28;19922;-52
2022/02/03 22:50:18;;;;;;;;;;;;;;;;;;5094505;28;19907;-55
2022/02/03 22:52:44;;;;;;;;;;;;;;;;;;5093717;28;19904;-57
2022/02/03 22:55:10;;;;;;;;;;;;;;;;;;5093594;28;20276;-57
2022/02/03 22:57:35;;;;;;;;;;;;;;;;;;5093753;28;19915;-55
2022/02/03 23:00:16;;;;;;;;;;;;;;;;;;5093400;28;20360;-55
2022/02/03 23:02:42;;;;;;;;;;;;;;;;;;5093507;28;19904;-56
2022/02/03 23:05:08;;;;;;;;;;;;;;;;;;5093726;28;19911;-56
2022/02/03 23:07:38;;;;;;;;;;;;;;;;;;5093565;28;19904;-55
2022/02/03 23:10:19;;;;;;;;;;;;;;;;;;5092898;28;19904;-56
2022/02/03 23:18:20;;;;;;;;;;;;;;;;;;5092624;28;19915;-56
2022/02/03 23:21:01;;;;;;;;;;;;;;;;;;5093760;28;19911;-56
2022/02/03 23:23:27;;;;;;;;;;;;;;;;;;5093169;28;19912;-57
2022/02/03 23:25:53;;;;;;;;;;;;;;;;;;5093569;28;20273;-56
2022/02/03 23:28:29;;;;;;;;;;;;;;;;;;5092495;28;19951;-55
2022/02/03 23:30:55;;;;;;;;;;;;;;;;;;5093434;28;19904;-57
2022/02/03 23:33:22;;;;;;;;;;;;;;;;;;5093193;28;20377;-56
2022/02/03 23:35:48;;;;;;;;;;;;;;;;;;5093090;28;20342;-51
2022/02/03 23:38:32;;;;;;;;;;;;;;;;;;5092256;28;19954;-53
